sensor_id;sensor_type;location;lat;lon;timestamp;pressure;altitude;pressure_sealevel;temperature;humidity
75604;BME280;64187;51.010;13.792;2022-12-18T00:03:43;101863.97;;;-7.30;72.53
75604;BME280;64187;51.010;13.792;2022-12-18T00:08:45;101847.91;;;-7.25;72.31
75604;BME280;64187;51.010;13.792;2022-12-18T00:13:45;101856.19;;;-7.17;71.67
75604;BME280;64187;51.010;13.792;2022-12-18T00:18:44;101878.06;;;-7.63;72.80
75604;BME280;64187;51.010;13.792;2022-12-18T00:23:44;101882.31;;;-7.44;72.14
75604;BME280;64187;51.010;13.792;2022-12-18T00:28:44;101885.81;;;-7.91;73.65
75604;BME280;64187;51.010;13.792;2022-12-18T00:33:44;101885.22;;;-7.65;72.35
75604;BME280;64187;51.010;13.792;2022-12-18T00:38:43;101889.44;;;-7.46;72.11
75604;BME280;64187;51.010;13.792;2022-12-18T00:43:42;101902.06;;;-7.53;72.18
75604;BME280;64187;51.010;13.792;2022-12-18T00:48:41;101902.59;;;-7.16;70.27
75604;BME280;64187;51.010;13.792;2022-12-18T00:53:40;101915.41;;;-7.40;70.70
75604;BME280;64187;51.010;13.792;2022-12-18T00:58:39;101901.81;;;-7.48;70.47
75604;BME280;64187;51.010;13.792;2022-12-18T01:03:38;101903.59;;;-7.49;70.71
75604;BME280;64187;51.010;13.792;2022-12-18T01:08:38;101913.97;;;-7.16;71.30
75604;BME280;64187;51.010;13.792;2022-12-18T01:13:38;101919.25;;;-7.16;69.39
75604;BME280;64187;51.010;13.792;2022-12-18T01:18:37;101920.06;;;-6.99;69.14
75604;BME280;64187;51.010;13.792;2022-12-18T01:23:36;101924.19;;;-7.25;69.60
75604;BME280;64187;51.010;13.792;2022-12-18T01:28:37;101930.91;;;-7.99;72.95
75604;BME280;64187;51.010;13.792;2022-12-18T01:33:36;101930.72;;;-7.17;69.88
75604;BME280;64187;51.010;13.792;2022-12-18T01:38:37;101923.03;;;-7.67;69.95
75604;BME280;64187;51.010;13.792;2022-12-18T01:48:53;101925.34;;;-8.10;71.08
75604;BME280;64187;51.010;13.792;2022-12-18T01:53:55;101924.34;;;-8.08;71.13
75604;BME280;64187;51.010;13.792;2022-12-18T01:59:04;101924.03;;;-7.38;68.38
75604;BME280;64187;51.010;13.792;2022-12-18T02:04:22;101934.63;;;-8.03;70.03
75604;BME280;64187;51.010;13.792;2022-12-18T02:09:29;101937.47;;;-7.74;69.30
75604;BME280;64187;51.010;13.792;2022-12-18T02:20:07;101928.41;;;-8.18;69.35
75604;BME280;64187;51.010;13.792;2022-12-18T02:30:39;101929.97;;;-8.31;70.76
75604;BME280;64187;51.010;13.792;2022-12-18T02:35:40;101950.22;;;-8.33;68.58
75604;BME280;64187;51.010;13.792;2022-12-18T02:40:42;101944.50;;;-7.59;66.33
75604;BME280;64187;51.010;13.792;2022-12-18T02:45:48;101933.09;;;-8.07;67.07
75604;BME280;64187;51.010;13.792;2022-12-18T02:51:06;101946.88;;;-8.53;69.20
75604;BME280;64187;51.010;13.792;2022-12-18T02:56:12;101945.34;;;-8.39;68.96
75604;BME280;64187;51.010;13.792;2022-12-18T03:06:35;101950.97;;;-8.64;69.16
75604;BME280;64187;51.010;13.792;2022-12-18T03:11:39;101950.38;;;-8.36;68.21
75604;BME280;64187;51.010;13.792;2022-12-18T03:17:00;101938.63;;;-8.29;68.73
75604;BME280;64187;51.010;13.792;2022-12-18T03:22:02;101950.56;;;-7.90;67.04
75604;BME280;64187;51.010;13.792;2022-12-18T03:27:15;101951.69;;;-8.61;68.65
75604;BME280;64187;51.010;13.792;2022-12-18T03:32:25;101954.31;;;-8.61;68.26
75604;BME280;64187;51.010;13.792;2022-12-18T03:37:26;101957.72;;;-8.59;69.29
75604;BME280;64187;51.010;13.792;2022-12-18T03:42:51;101964.16;;;-9.01;70.01
75604;BME280;64187;51.010;13.792;2022-12-18T03:48:06;101967.59;;;-8.64;69.78
75604;BME280;64187;51.010;13.792;2022-12-18T03:58:29;101972.22;;;-8.86;70.49
75604;BME280;64187;51.010;13.792;2022-12-18T04:03:48;101971.19;;;-9.01;70.63
75604;BME280;64187;51.010;13.792;2022-12-18T04:08:50;101972.47;;;-9.10;70.61
75604;BME280;64187;51.010;13.792;2022-12-18T04:13:56;101963.66;;;-8.22;67.06
75604;BME280;64187;51.010;13.792;2022-12-18T04:18:56;101978.09;;;-8.47;67.46
75604;BME280;64187;51.010;13.792;2022-12-18T04:23:57;101983.41;;;-8.83;68.20
75604;BME280;64187;51.010;13.792;2022-12-18T04:28:56;101989.81;;;-9.25;70.79
75604;BME280;64187;51.010;13.792;2022-12-18T04:33:55;101983.56;;;-8.69;68.41
75604;BME280;64187;51.010;13.792;2022-12-18T04:38:55;101987.09;;;-8.70;67.55
75604;BME280;64187;51.010;13.792;2022-12-18T04:43:54;101983.25;;;-8.45;66.53
75604;BME280;64187;51.010;13.792;2022-12-18T04:48:53;101991.69;;;-8.23;64.75
75604;BME280;64187;51.010;13.792;2022-12-18T04:53:52;101997.50;;;-9.03;67.08
75604;BME280;64187;51.010;13.792;2022-12-18T04:58:51;102001.44;;;-9.49;68.65
75604;BME280;64187;51.010;13.792;2022-12-18T05:03:51;101992.97;;;-9.73;69.51
75604;BME280;64187;51.010;13.792;2022-12-18T05:08:50;101991.34;;;-9.76;71.49
75604;BME280;64187;51.010;13.792;2022-12-18T05:13:49;101996.59;;;-8.84;68.04
75604;BME280;64187;51.010;13.792;2022-12-18T05:18:48;101990.91;;;-9.48;68.67
75604;BME280;64187;51.010;13.792;2022-12-18T05:23:46;101997.28;;;-9.72;70.46
75604;BME280;64187;51.010;13.792;2022-12-18T05:28:46;101993.66;;;-9.51;69.38
75604;BME280;64187;51.010;13.792;2022-12-18T05:33:45;102003.22;;;-9.69;69.76
75604;BME280;64187;51.010;13.792;2022-12-18T05:38:46;101997.03;;;-9.87;70.25
75604;BME280;64187;51.010;13.792;2022-12-18T05:43:45;101999.78;;;-9.14;67.72
75604;BME280;64187;51.010;13.792;2022-12-18T05:48:44;101999.81;;;-9.52;68.91
75604;BME280;64187;51.010;13.792;2022-12-18T05:53:43;102002.44;;;-9.52;68.75
75604;BME280;64187;51.010;13.792;2022-12-18T05:58:43;102004.00;;;-9.48;68.77
75604;BME280;64187;51.010;13.792;2022-12-18T06:03:42;102017.34;;;-9.92;70.06
75604;BME280;64187;51.010;13.792;2022-12-18T06:08:42;102013.19;;;-9.20;68.35
75604;BME280;64187;51.010;13.792;2022-12-18T06:13:44;102019.00;;;-9.51;68.59
75604;BME280;64187;51.010;13.792;2022-12-18T06:18:43;102019.28;;;-9.77;69.56
75604;BME280;64187;51.010;13.792;2022-12-18T06:23:42;102029.66;;;-9.94;70.48
75604;BME280;64187;51.010;13.792;2022-12-18T06:28:42;102027.22;;;-9.59;69.16
75604;BME280;64187;51.010;13.792;2022-12-18T06:33:41;102024.31;;;-9.72;69.63
75604;BME280;64187;51.010;13.792;2022-12-18T06:38:43;102037.44;;;-9.53;69.11
75604;BME280;64187;51.010;13.792;2022-12-18T06:43:42;102038.22;;;-9.51;67.96
75604;BME280;64187;51.010;13.792;2022-12-18T06:48:41;102039.28;;;-9.55;68.54
75604;BME280;64187;51.010;13.792;2022-12-18T06:53:40;102036.00;;;-9.79;69.40
75604;BME280;64187;51.010;13.792;2022-12-18T06:58:40;102049.41;;;-10.06;71.30
75604;BME280;64187;51.010;13.792;2022-12-18T07:03:40;102057.19;;;-9.27;68.32
75604;BME280;64187;51.010;13.792;2022-12-18T07:08:40;102062.72;;;-9.71;69.19
75604;BME280;64187;51.010;13.792;2022-12-18T07:13:39;102061.03;;;-9.53;68.91
75604;BME280;64187;51.010;13.792;2022-12-18T07:18:38;102078.19;;;-9.85;70.34
75604;BME280;64187;51.010;13.792;2022-12-18T07:23:38;102062.47;;;-9.85;70.39
75604;BME280;64187;51.010;13.792;2022-12-18T07:28:38;102067.41;;;-9.40;69.10
75604;BME280;64187;51.010;13.792;2022-12-18T07:33:38;102073.50;;;-9.20;68.29
75604;BME280;64187;51.010;13.792;2022-12-18T07:38:37;102075.72;;;-8.75;67.12
75604;BME280;64187;51.010;13.792;2022-12-18T07:43:36;102085.94;;;-8.69;66.63
75604;BME280;64187;51.010;13.792;2022-12-18T07:48:36;102086.53;;;-8.81;67.64
75604;BME280;64187;51.010;13.792;2022-12-18T07:53:35;102093.34;;;-9.15;69.55
75604;BME280;64187;51.010;13.792;2022-12-18T07:58:36;102100.84;;;-8.88;68.83
75604;BME280;64187;51.010;13.792;2022-12-18T08:03:37;102099.47;;;-8.24;67.15
75604;BME280;64187;51.010;13.792;2022-12-18T08:08:37;102084.78;;;-8.11;67.36
75604;BME280;64187;51.010;13.792;2022-12-18T08:13:36;102072.97;;;-7.69;69.67
75604;BME280;64187;51.010;13.792;2022-12-18T08:18:36;102056.81;;;-4.80;87.11
75604;BME280;64187;51.010;13.792;2022-12-18T08:23:35;102042.59;;;4.22;71.90
75604;BME280;64187;51.010;13.792;2022-12-18T08:28:41;102055.06;;;-1.25;53.75
75604;BME280;64187;51.010;13.792;2022-12-18T08:33:40;102058.31;;;-3.70;62.05
75604;BME280;64187;51.010;13.792;2022-12-18T08:38:40;102067.69;;;-3.53;63.85
75604;BME280;64187;51.010;13.792;2022-12-18T08:43:39;102068.25;;;-3.86;64.46
75604;BME280;64187;51.010;13.792;2022-12-18T08:48:57;102065.06;;;-3.92;65.62
75604;BME280;64187;51.010;13.792;2022-12-18T08:53:56;102068.81;;;-4.74;69.95
75604;BME280;64187;51.010;13.792;2022-12-18T08:58:55;102073.91;;;-4.31;68.18
75604;BME280;64187;51.010;13.792;2022-12-18T09:03:54;102079.44;;;-3.96;67.67
75604;BME280;64187;51.010;13.792;2022-12-18T09:08:53;102078.59;;;-4.09;68.08
75604;BME280;64187;51.010;13.792;2022-12-18T09:13:53;102069.19;;;-3.62;67.37
75604;BME280;64187;51.010;13.792;2022-12-18T09:18:52;102078.56;;;-3.19;66.49
75604;BME280;64187;51.010;13.792;2022-12-18T09:23:57;102091.25;;;-3.12;66.78
75604;BME280;64187;51.010;13.792;2022-12-18T09:28:56;102107.19;;;-3.37;67.48
75604;BME280;64187;51.010;13.792;2022-12-18T09:33:56;102090.13;;;-2.84;66.52
75604;BME280;64187;51.010;13.792;2022-12-18T09:38:55;102098.59;;;-2.30;65.47
75604;BME280;64187;51.010;13.792;2022-12-18T09:43:58;102099.97;;;-2.13;65.60
75604;BME280;64187;51.010;13.792;2022-12-18T09:49:03;102097.59;;;-2.05;65.99
75604;BME280;64187;51.010;13.792;2022-12-18T09:54:32;102094.88;;;-2.28;67.71
75604;BME280;64187;51.010;13.792;2022-12-18T09:59:36;102083.59;;;-2.07;66.96
75604;BME280;64187;51.010;13.792;2022-12-18T10:04:35;102076.75;;;-1.99;67.66
75604;BME280;64187;51.010;13.792;2022-12-18T10:10:01;102058.88;;;-2.43;68.97
75604;BME280;64187;51.010;13.792;2022-12-18T10:20:44;102041.22;;;-2.20;68.28
75604;BME280;64187;51.010;13.792;2022-12-18T10:26:06;102031.47;;;-2.20;68.16
75604;BME280;64187;51.010;13.792;2022-12-18T10:31:26;102023.91;;;-2.02;67.61
75604;BME280;64187;51.010;13.792;2022-12-18T10:36:25;102014.81;;;-2.22;68.71
75604;BME280;64187;51.010;13.792;2022-12-18T10:41:26;102001.84;;;-2.02;67.98
75604;BME280;64187;51.010;13.792;2022-12-18T10:46:27;101995.94;;;-2.06;68.35
75604;BME280;64187;51.010;13.792;2022-12-18T10:51:34;101988.44;;;-2.12;68.86
75604;BME280;64187;51.010;13.792;2022-12-18T10:56:35;101995.91;;;-2.17;68.61
75604;BME280;64187;51.010;13.792;2022-12-18T11:01:54;101995.91;;;-2.28;68.68
75604;BME280;64187;51.010;13.792;2022-12-18T11:06:58;102000.28;;;-1.93;68.02
75604;BME280;64187;51.010;13.792;2022-12-18T11:11:59;101998.69;;;-2.07;68.29
75604;BME280;64187;51.010;13.792;2022-12-18T11:17:00;101984.13;;;-1.90;67.51
75604;BME280;64187;51.010;13.792;2022-12-18T11:22:20;101966.59;;;-1.59;66.34
75604;BME280;64187;51.010;13.792;2022-12-18T11:27:20;101961.56;;;-1.96;67.49
75604;BME280;64187;51.010;13.792;2022-12-18T11:32:32;101963.94;;;-1.48;65.46
75604;BME280;64187;51.010;13.792;2022-12-18T11:37:32;101973.59;;;-1.47;65.19
75604;BME280;64187;51.010;13.792;2022-12-18T11:42:39;101962.59;;;-1.42;65.38
75604;BME280;64187;51.010;13.792;2022-12-18T11:47:46;101960.91;;;-1.55;65.64
75604;BME280;64187;51.010;13.792;2022-12-18T11:52:47;101966.00;;;-1.63;65.72
75604;BME280;64187;51.010;13.792;2022-12-18T11:58:14;101977.69;;;-1.99;66.56
75604;BME280;64187;51.010;13.792;2022-12-18T12:14:12;101985.31;;;-1.72;65.49
75604;BME280;64187;51.010;13.792;2022-12-18T12:35:36;101993.75;;;-1.67;64.84
75604;BME280;64187;51.010;13.792;2022-12-18T12:40:48;102023.22;;;-1.70;65.25
75604;BME280;64187;51.010;13.792;2022-12-18T12:46:05;102020.78;;;-1.84;65.58
75604;BME280;64187;51.010;13.792;2022-12-18T12:56:20;101993.38;;;-2.07;66.49
75604;BME280;64187;51.010;13.792;2022-12-18T13:06:53;102004.34;;;-2.23;66.21
75604;BME280;64187;51.010;13.792;2022-12-18T13:12:03;101998.75;;;-2.31;67.06
75604;BME280;64187;51.010;13.792;2022-12-18T13:22:34;101998.66;;;-2.65;68.34
75604;BME280;64187;51.010;13.792;2022-12-18T13:32:41;101999.34;;;-2.74;68.70
75604;BME280;64187;51.010;13.792;2022-12-18T13:37:44;102002.72;;;-2.96;70.02
75604;BME280;64187;51.010;13.792;2022-12-18T13:42:49;101995.44;;;-2.82;68.32
75604;BME280;64187;51.010;13.792;2022-12-18T13:48:15;101988.56;;;-2.84;69.46
75604;BME280;64187;51.010;13.792;2022-12-18T13:53:21;101993.31;;;-2.76;69.00
75604;BME280;64187;51.010;13.792;2022-12-18T13:58:20;101988.34;;;-2.81;69.16
75604;BME280;64187;51.010;13.792;2022-12-18T14:03:26;101995.31;;;-3.28;70.90
75604;BME280;64187;51.010;13.792;2022-12-18T14:08:29;101992.16;;;-3.33;71.30
75604;BME280;64187;51.010;13.792;2022-12-18T14:13:33;101984.47;;;-3.12;70.68
75604;BME280;64187;51.010;13.792;2022-12-18T14:18:52;101991.09;;;-3.31;71.54
75604;BME280;64187;51.010;13.792;2022-12-18T14:29:22;101975.56;;;-3.48;72.22
75604;BME280;64187;51.010;13.792;2022-12-18T14:34:26;101977.13;;;-3.09;71.08
75604;BME280;64187;51.010;13.792;2022-12-18T14:39:25;101963.41;;;-3.38;71.54
75604;BME280;64187;51.010;13.792;2022-12-18T14:44:24;101961.59;;;-3.37;71.78
75604;BME280;64187;51.010;13.792;2022-12-18T14:49:33;101962.34;;;-3.48;71.64
75604;BME280;64187;51.010;13.792;2022-12-18T14:54:34;101958.97;;;-3.50;72.54
75604;BME280;64187;51.010;13.792;2022-12-18T14:59:35;101967.66;;;-3.61;72.53
75604;BME280;64187;51.010;13.792;2022-12-18T15:04:37;101971.94;;;-3.84;73.48
75604;BME280;64187;51.010;13.792;2022-12-18T15:09:41;101975.75;;;-3.88;73.02
75604;BME280;64187;51.010;13.792;2022-12-18T15:14:41;101964.75;;;-4.07;74.55
75604;BME280;64187;51.010;13.792;2022-12-18T15:19:42;101970.50;;;-4.26;75.09
75604;BME280;64187;51.010;13.792;2022-12-18T15:24:42;101971.22;;;-3.99;74.16
75604;BME280;64187;51.010;13.792;2022-12-18T15:29:40;101971.09;;;-4.23;75.36
75604;BME280;64187;51.010;13.792;2022-12-18T15:34:39;101969.44;;;-4.24;75.00
75604;BME280;64187;51.010;13.792;2022-12-18T15:39:38;101972.28;;;-4.27;75.17
75604;BME280;64187;51.010;13.792;2022-12-18T15:44:37;101954.00;;;-4.04;74.13
75604;BME280;64187;51.010;13.792;2022-12-18T15:49:36;101962.44;;;-4.25;75.13
75604;BME280;64187;51.010;13.792;2022-12-18T15:54:35;101968.38;;;-4.08;73.68
75604;BME280;64187;51.010;13.792;2022-12-18T15:59:56;101963.91;;;-4.08;74.21
75604;BME280;64187;51.010;13.792;2022-12-18T16:04:57;101962.84;;;-4.05;74.16
75604;BME280;64187;51.010;13.792;2022-12-18T16:09:55;101952.50;;;-4.08;74.25
75604;BME280;64187;51.010;13.792;2022-12-18T16:14:56;101948.25;;;-3.98;73.82
75604;BME280;64187;51.010;13.792;2022-12-18T16:19:55;101934.63;;;-3.92;73.59
75604;BME280;64187;51.010;13.792;2022-12-18T16:24:55;101934.41;;;-3.89;73.46
75604;BME280;64187;51.010;13.792;2022-12-18T16:29:54;101932.28;;;-3.97;73.43
75604;BME280;64187;51.010;13.792;2022-12-18T16:34:59;101933.22;;;-3.85;73.45
75604;BME280;64187;51.010;13.792;2022-12-18T16:39:59;101930.72;;;-4.38;75.15
75604;BME280;64187;51.010;13.792;2022-12-18T16:44:57;101929.97;;;-4.01;74.02
75604;BME280;64187;51.010;13.792;2022-12-18T16:49:56;101917.84;;;-4.29;75.57
75604;BME280;64187;51.010;13.792;2022-12-18T16:54:55;101923.53;;;-4.23;75.04
75604;BME280;64187;51.010;13.792;2022-12-18T16:59:54;101918.34;;;-4.12;74.95
75604;BME280;64187;51.010;13.792;2022-12-18T17:05:02;101915.22;;;-3.93;73.90
75604;BME280;64187;51.010;13.792;2022-12-18T17:10:01;101911.53;;;-3.90;73.92
75604;BME280;64187;51.010;13.792;2022-12-18T17:15:00;101897.69;;;-3.94;74.17
75604;BME280;64187;51.010;13.792;2022-12-18T17:19:59;101900.00;;;-3.89;73.88
75604;BME280;64187;51.010;13.792;2022-12-18T17:24:58;101903.41;;;-3.87;74.29
75604;BME280;64187;51.010;13.792;2022-12-18T17:29:56;101896.00;;;-4.07;74.80
75604;BME280;64187;51.010;13.792;2022-12-18T17:34:55;101892.94;;;-4.01;75.00
75604;BME280;64187;51.010;13.792;2022-12-18T17:39:54;101886.28;;;-3.94;74.89
75604;BME280;64187;51.010;13.792;2022-12-18T17:44:53;101885.53;;;-3.96;74.69
75604;BME280;64187;51.010;13.792;2022-12-18T17:49:54;101879.94;;;-4.04;74.93
75604;BME280;64187;51.010;13.792;2022-12-18T17:54:54;101876.25;;;-4.02;75.02
75604;BME280;64187;51.010;13.792;2022-12-18T17:59:53;101868.69;;;-3.95;74.80
75604;BME280;64187;51.010;13.792;2022-12-18T18:04:53;101877.03;;;-3.88;74.44
75604;BME280;64187;51.010;13.792;2022-12-18T18:09:51;101865.16;;;-3.83;74.29
75604;BME280;64187;51.010;13.792;2022-12-18T18:14:50;101867.81;;;-3.83;74.09
75604;BME280;64187;51.010;13.792;2022-12-18T18:19:49;101861.44;;;-3.80;74.28
75604;BME280;64187;51.010;13.792;2022-12-18T18:24:48;101862.31;;;-3.80;73.67
75604;BME280;64187;51.010;13.792;2022-12-18T18:29:47;101858.78;;;-3.67;73.25
75604;BME280;64187;51.010;13.792;2022-12-18T18:34:48;101844.59;;;-4.03;74.34
75604;BME280;64187;51.010;13.792;2022-12-18T18:39:47;101839.41;;;-3.92;74.18
75604;BME280;64187;51.010;13.792;2022-12-18T18:44:46;101825.94;;;-3.89;74.42
75604;BME280;64187;51.010;13.792;2022-12-18T18:49:46;101833.91;;;-3.65;73.59
75604;BME280;64187;51.010;13.792;2022-12-18T18:54:46;101822.53;;;-3.54;72.87
75604;BME280;64187;51.010;13.792;2022-12-18T19:00:07;101815.53;;;-3.79;73.82
75604;BME280;64187;51.010;13.792;2022-12-18T19:05:06;101816.03;;;-3.74;73.31
75604;BME280;64187;51.010;13.792;2022-12-18T19:10:06;101794.06;;;-3.63;72.84
75604;BME280;64187;51.010;13.792;2022-12-18T19:15:05;101788.19;;;-3.67;73.16
75604;BME280;64187;51.010;13.792;2022-12-18T19:20:04;101786.06;;;-3.51;72.76
75604;BME280;64187;51.010;13.792;2022-12-18T19:25:06;101771.63;;;-3.82;74.00
75604;BME280;64187;51.010;13.792;2022-12-18T19:30:05;101768.25;;;-3.60;73.59
75604;BME280;64187;51.010;13.792;2022-12-18T19:35:05;101764.53;;;-3.57;72.66
75604;BME280;64187;51.010;13.792;2022-12-18T19:40:05;101755.34;;;-3.64;72.91
75604;BME280;64187;51.010;13.792;2022-12-18T19:45:10;101736.28;;;-3.46;72.49
75604;BME280;64187;51.010;13.792;2022-12-18T19:50:09;101743.66;;;-3.38;71.96
75604;BME280;64187;51.010;13.792;2022-12-18T19:55:08;101731.94;;;-3.47;71.86
75604;BME280;64187;51.010;13.792;2022-12-18T20:00:07;101744.84;;;-3.42;72.02
75604;BME280;64187;51.010;13.792;2022-12-18T20:05:14;101737.06;;;-3.67;72.80
75604;BME280;64187;51.010;13.792;2022-12-18T20:10:13;101731.19;;;-3.60;72.32
75604;BME280;64187;51.010;13.792;2022-12-18T20:15:14;101735.84;;;-3.28;71.48
75604;BME280;64187;51.010;13.792;2022-12-18T20:20:13;101736.69;;;-3.16;70.82
75604;BME280;64187;51.010;13.792;2022-12-18T20:25:12;101730.19;;;-3.35;71.87
75604;BME280;64187;51.010;13.792;2022-12-18T20:30:14;101742.97;;;-3.17;70.98
75604;BME280;64187;51.010;13.792;2022-12-18T20:35:12;101731.06;;;-3.12;70.75
75604;BME280;64187;51.010;13.792;2022-12-18T20:40:21;101716.91;;;-3.46;71.89
75604;BME280;64187;51.010;13.792;2022-12-18T20:45:20;101726.91;;;-3.50;72.09
75604;BME280;64187;51.010;13.792;2022-12-18T20:50:19;101724.69;;;-3.67;72.38
75604;BME280;64187;51.010;13.792;2022-12-18T20:55:17;101698.66;;;-3.38;71.77
75604;BME280;64187;51.010;13.792;2022-12-18T21:00:17;101696.00;;;-3.27;71.13
75604;BME280;64187;51.010;13.792;2022-12-18T21:05:18;101709.75;;;-3.21;71.40
75604;BME280;64187;51.010;13.792;2022-12-18T21:10:17;101714.31;;;-3.12;70.30
75604;BME280;64187;51.010;13.792;2022-12-18T21:15:16;101715.06;;;-3.10;69.85
75604;BME280;64187;51.010;13.792;2022-12-18T21:20:15;101711.31;;;-2.74;68.86
75604;BME280;64187;51.010;13.792;2022-12-18T21:25:16;101726.59;;;-3.11;69.75
75604;BME280;64187;51.010;13.792;2022-12-18T21:30:15;101720.84;;;-3.05;70.17
75604;BME280;64187;51.010;13.792;2022-12-18T21:35:14;101715.28;;;-3.25;70.54
75604;BME280;64187;51.010;13.792;2022-12-18T21:40:14;101726.09;;;-3.28;70.28
75604;BME280;64187;51.010;13.792;2022-12-18T21:45:13;101716.28;;;-3.03;69.90
75604;BME280;64187;51.010;13.792;2022-12-18T21:50:12;101698.19;;;-3.20;70.76
75604;BME280;64187;51.010;13.792;2022-12-18T21:55:12;101708.28;;;-3.26;70.33
75604;BME280;64187;51.010;13.792;2022-12-18T22:00:11;101709.94;;;-3.36;71.17
75604;BME280;64187;51.010;13.792;2022-12-18T22:05:17;101697.94;;;-3.06;70.48
75604;BME280;64187;51.010;13.792;2022-12-18T22:10:15;101691.56;;;-3.26;71.49
75604;BME280;64187;51.010;13.792;2022-12-18T22:15:14;101688.06;;;-3.27;71.30
75604;BME280;64187;51.010;13.792;2022-12-18T22:20:19;101693.72;;;-3.42;71.80
75604;BME280;64187;51.010;13.792;2022-12-18T22:25:18;101691.94;;;-3.19;71.04
75604;BME280;64187;51.010;13.792;2022-12-18T22:30:17;101693.38;;;-3.15;71.10
75604;BME280;64187;51.010;13.792;2022-12-18T22:35:15;101693.28;;;-3.03;70.72
75604;BME280;64187;51.010;13.792;2022-12-18T22:40:22;101682.38;;;-3.33;71.29
75604;BME280;64187;51.010;13.792;2022-12-18T22:45:24;101684.19;;;-3.34;71.51
75604;BME280;64187;51.010;13.792;2022-12-18T22:50:23;101669.88;;;-3.31;71.57
75604;BME280;64187;51.010;13.792;2022-12-18T22:55:22;101667.00;;;-3.06;70.32
75604;BME280;64187;51.010;13.792;2022-12-18T23:00:21;101653.88;;;-3.18;70.17
75604;BME280;64187;51.010;13.792;2022-12-18T23:05:22;101643.53;;;-3.21;70.52
75604;BME280;64187;51.010;13.792;2022-12-18T23:10:20;101626.22;;;-3.03;69.73
75604;BME280;64187;51.010;13.792;2022-12-18T23:15:20;101631.00;;;-3.31;70.34
75604;BME280;64187;51.010;13.792;2022-12-18T23:20:26;101623.78;;;-3.29;70.28
75604;BME280;64187;51.010;13.792;2022-12-18T23:25:25;101606.94;;;-3.16;70.04
75604;BME280;64187;51.010;13.792;2022-12-18T23:30:24;101601.41;;;-3.36;70.25
75604;BME280;64187;51.010;13.792;2022-12-18T23:35:23;101597.56;;;-3.20;69.73
75604;BME280;64187;51.010;13.792;2022-12-18T23:40:22;101583.84;;;-3.14;69.25
75604;BME280;64187;51.010;13.792;2022-12-18T23:45:20;101567.00;;;-3.25;69.55
75604;BME280;64187;51.010;13.792;2022-12-18T23:50:19;101555.44;;;-3.23;69.58
75604;BME280;64187;51.010;13.792;2022-12-18T23:55:26;101545.94;;;-3.37;69.77
